Time;durP1;ratioP1;P1;durP2;ratioP2;P2;SDS_P1;SDS_P2;PMS_P1;PMS_P2;Temp;Humidity;BMP_temperature;BMP_pressure;BME280_temperature;BME280_humidity;BME280_pressure;Samples;Min_cycle;Max_cycle;Signal;HPM_P1;HPM_P2
2022/12/12 00:00:09;;;;;;;33.60;20.20;;;3.70;96.90;;;;;;4995557;28;20450;-77
2022/12/12 00:02:38;;;;;;;32.93;20.30;;;3.60;96.80;;;;;;4995353;28;20972;-78
2022/12/12 00:05:06;;;;;;;33.87;20.70;;;3.70;96.80;;;;;;4995384;28;20480;-77
2022/12/12 00:07:33;;;;;;;33.43;20.97;;;3.60;96.70;;;;;;4995219;28;20454;-77
2022/12/12 00:10:00;;;;;;;28.83;19.67;;;3.70;96.70;;;;;;4994815;28;20915;-77
2022/12/12 00:12:27;;;;;;;33.73;20.30;;;3.60;96.60;;;;;;4994874;28;20898;-78
2022/12/12 00:14:54;;;;;;;32.50;22.37;;;3.60;96.60;;;;;;4995204;28;20479;-77
2022/12/12 00:17:21;;;;;;;31.73;19.00;;;3.60;96.60;;;;;;4995056;28;20439;-77
2022/12/12 00:19:49;;;;;;;31.73;20.20;;;3.60;96.60;;;;;;4995013;28;20446;-77
2022/12/12 00:22:16;;;;;;;38.80;20.63;;;3.60;96.70;;;;;;4994645;28;20466;-77
2022/12/12 00:24:42;;;;;;;30.80;19.47;;;3.60;96.70;;;;;;4994990;28;20495;-77
2022/12/12 00:27:09;;;;;;;32.97;20.10;;;3.50;96.70;;;;;;4994519;28;20465;-77
2022/12/12 00:29:36;;;;;;;26.03;18.70;;;3.60;96.80;;;;;;4994492;28;20504;-77
2022/12/12 00:32:02;;;;;;;37.73;22.20;;;3.60;96.80;;;;;;4994839;28;20481;-77
2022/12/12 00:34:29;;;;;;;34.43;20.30;;;3.50;96.60;;;;;;4994882;28;20473;-77
2022/12/12 00:36:57;;;;;;;31.00;20.27;;;3.60;96.60;;;;;;4994676;28;20438;-77
2022/12/12 00:39:24;;;;;;;32.73;19.97;;;3.60;96.60;;;;;;4994847;28;20451;-77
2022/12/12 00:41:51;;;;;;;34.30;21.80;;;3.60;96.50;;;;;;4994634;28;20945;-77
2022/12/12 00:44:18;;;;;;;30.50;19.70;;;3.50;96.50;;;;;;4998645;28;20492;-77
2022/12/12 00:46:45;;;;;;;34.93;20.97;;;3.60;96.40;;;;;;5006751;28;20958;-77
2022/12/12 00:49:13;;;;;;;38.50;19.80;;;3.50;96.30;;;;;;4994526;28;20862;-77
2022/12/12 00:51:41;;;;;;;32.73;20.47;;;3.50;96.40;;;;;;4994471;28;20464;-78
2022/12/12 00:54:09;;;;;;;29.33;19.73;;;3.50;96.30;;;;;;4994203;28;20524;-77
2022/12/12 00:56:36;;;;;;;32.13;20.40;;;3.50;96.30;;;;;;4994553;28;20445;-78
2022/12/12 00:59:04;;;;;;;28.60;18.33;;;3.50;96.30;;;;;;4994050;28;20945;-77
2022/12/12 01:01:32;;;;;;;42.50;20.80;;;3.40;96.30;;;;;;4993936;28;20449;-77
2022/12/12 01:03:59;;;;;;;30.97;20.40;;;3.40;96.40;;;;;;4994311;28;20473;-77
2022/12/12 01:06:26;;;;;;;32.23;20.30;;;3.40;96.50;;;;;;4994433;28;20471;-77
2022/12/12 01:08:53;;;;;;;29.00;18.67;;;3.30;96.50;;;;;;4994777;28;20473;-77
2022/12/12 01:11:21;;;;;;;30.33;19.00;;;3.30;96.60;;;;;;4994789;28;20457;-78
2022/12/12 01:13:49;;;;;;;29.87;20.43;;;3.30;96.60;;;;;;4994379;28;20489;-78
2022/12/12 01:16:16;;;;;;;32.00;18.70;;;3.30;96.70;;;;;;4994436;28;20456;-78
2022/12/12 01:18:43;;;;;;;33.87;18.97;;;3.30;96.80;;;;;;4994792;28;20477;-78
2022/12/12 01:21:11;;;;;;;36.50;19.23;;;3.30;96.80;;;;;;4994203;28;20448;-77
2022/12/12 01:23:38;;;;;;;34.10;19.77;;;3.30;96.80;;;;;;4993967;28;20487;-77
2022/12/12 01:26:08;;;;;;;31.70;18.73;;;3.30;96.80;;;;;;4994085;28;20472;-78
2022/12/12 01:28:36;;;;;;;41.20;19.60;;;3.30;96.80;;;;;;4994002;28;20449;-77
2022/12/12 01:31:03;;;;;;;36.87;18.63;;;3.40;96.80;;;;;;4994076;28;20457;-78
2022/12/12 01:33:30;;;;;;;35.30;19.60;;;3.40;96.80;;;;;;4994809;28;20996;-77
2022/12/12 01:35:56;;;;;;;38.10;19.97;;;3.30;96.80;;;;;;4998026;28;20534;-78
2022/12/12 01:38:24;;;;;;;36.10;20.90;;;3.40;96.80;;;;;;4997936;28;20452;-77
2022/12/12 01:40:50;;;;;;;29.40;20.53;;;3.30;96.70;;;;;;4997904;28;20531;-78
2022/12/12 01:43:19;;;;;;;30.50;19.60;;;3.30;96.70;;;;;;4998152;28;20445;-77
2022/12/12 01:46:40;;;;;;;36.00;18.50;;;3.30;96.70;;;;;;4997681;28;20460;-78
2022/12/12 01:49:15;;;;;;;27.90;19.10;;;3.30;96.70;;;;;;4997806;28;20449;-78
2022/12/12 01:51:43;;;;;;;32.10;18.23;;;3.30;96.60;;;;;;4997655;28;20442;-77
2022/12/12 01:54:14;;;;;;;31.60;17.43;;;3.30;96.50;;;;;;4997627;28;20488;-77
2022/12/12 01:56:44;;;;;;;24.80;16.13;;;3.30;96.40;;;;;;4997621;28;20438;-78
2022/12/12 01:59:14;;;;;;;34.10;18.60;;;3.30;96.40;;;;;;4997422;28;20448;-77
2022/12/12 02:01:41;;;;;;;32.07;18.43;;;3.30;96.40;;;;;;4997216;28;20921;-78
2022/12/12 02:04:10;;;;;;;30.47;19.43;;;3.20;96.20;;;;;;4997321;28;20475;-77
2022/12/12 02:06:38;;;;;;;27.10;16.83;;;3.20;96.20;;;;;;4997283;28;20509;-77
2022/12/12 02:09:07;;;;;;;33.53;19.23;;;3.20;96.10;;;;;;4997283;28;20452;-78
2022/12/12 02:11:38;;;;;;;34.10;19.93;;;3.20;96.10;;;;;;4997403;28;20444;-78
2022/12/12 02:14:04;;;;;;;31.70;17.17;;;3.20;96.00;;;;;;4996898;28;20493;-77
2022/12/12 02:16:50;;;;;;;32.30;18.17;;;3.10;95.80;;;;;;4996982;28;20945;-77
2022/12/12 02:19:54;;;;;;;28.13;17.97;;;3.10;95.80;;;;;;4997300;28;20425;-77
2022/12/12 02:22:32;;;;;;;29.13;17.57;;;3.10;95.70;;;;;;4997139;28;20441;-78
2022/12/12 02:25:25;;;;;;;26.20;17.13;;;3.00;95.60;;;;;;4997087;28;20477;-77
2022/12/12 02:28:27;;;;;;;27.07;18.40;;;3.00;95.60;;;;;;4996930;28;20943;-78
2022/12/12 02:31:10;;;;;;;30.37;19.80;;;3.00;95.60;;;;;;4996847;28;20472;-77
2022/12/12 02:33:45;;;;;;;31.73;19.33;;;2.90;95.60;;;;;;4996872;28;20488;-77
2022/12/12 02:36:17;;;;;;;29.07;17.17;;;2.90;95.60;;;;;;4996637;28;20944;-78
2022/12/12 02:38:53;;;;;;;33.07;18.13;;;2.90;95.60;;;;;;4996812;28;20444;-78
2022/12/12 02:41:28;;;;;;;24.50;16.57;;;2.80;95.40;;;;;;4996537;28;20433;-78
2022/12/12 02:44:06;;;;;;;27.70;17.67;;;2.80;95.40;;;;;;4996594;28;20464;-77
2022/12/12 02:46:42;;;;;;;31.70;18.60;;;2.80;95.40;;;;;;4996777;28;20469;-78
2022/12/12 02:49:13;;;;;;;27.57;17.73;;;2.80;95.40;;;;;;4996683;28;20440;-77
2022/12/12 02:51:41;;;;;;;29.60;18.63;;;2.70;95.30;;;;;;4996339;28;20902;-78
2022/12/12 02:54:14;;;;;;;24.37;17.30;;;2.70;95.40;;;;;;4996515;28;20493;-77
2022/12/12 02:56:48;;;;;;;24.80;16.50;;;2.70;95.40;;;;;;4996561;28;20428;-78
2022/12/12 02:59:21;;;;;;;24.60;16.20;;;2.70;95.50;;;;;;4996419;28;20430;-78
2022/12/12 03:02:10;;;;;;;30.93;16.10;;;2.60;95.90;;;;;;4997242;28;20432;-78
2022/12/12 03:07:47;;;;;;;21.10;14.37;;;2.60;95.70;;;;;;4996179;28;20432;-78
2022/12/12 03:10:25;;;;;;;27.13;16.47;;;2.60;95.80;;;;;;4996023;28;20437;-78
2022/12/12 03:12:59;;;;;;;26.03;17.00;;;2.60;96.00;;;;;;4995951;28;20528;-78
2022/12/12 03:15:32;;;;;;;25.23;16.23;;;2.60;96.00;;;;;;4995925;28;20996;-78
2022/12/12 03:18:13;;;;;;;27.60;17.60;;;2.60;96.10;;;;;;4996209;28;20969;-78
2022/12/12 03:20:48;;;;;;;27.40;17.27;;;2.50;96.10;;;;;;4996451;28;20441;-78
2022/12/12 03:23:20;;;;;;;21.93;14.97;;;2.60;96.10;;;;;;4995922;28;20901;-77
2022/12/12 03:25:53;;;;;;;23.30;15.70;;;2.60;96.10;;;;;;4995730;28;20461;-77
2022/12/12 03:28:24;;;;;;;27.60;16.93;;;2.50;96.00;;;;;;4996258;28;20436;-78
2022/12/12 03:30:55;;;;;;;27.60;17.53;;;2.50;96.00;;;;;;4995862;28;20438;-78
2022/12/12 03:33:27;;;;;;;27.83;15.80;;;2.50;96.10;;;;;;4996277;28;20478;-77
2022/12/12 03:35:59;;;;;;;24.87;16.23;;;2.50;96.10;;;;;;4995469;28;20962;-78
2022/12/12 03:38:29;;;;;;;29.17;17.53;;;2.50;96.10;;;;;;4996271;28;20433;-78
2022/12/12 03:40:59;;;;;;;28.00;17.40;;;2.40;96.00;;;;;;4995687;28;20478;-78
2022/12/12 03:43:29;;;;;;;30.10;17.67;;;2.40;96.10;;;;;;4995532;28;20449;-78
2022/12/12 03:45:59;;;;;;;26.70;16.30;;;2.40;96.10;;;;;;4995616;28;20437;-77
2022/12/12 03:48:29;;;;;;;25.77;16.67;;;2.40;96.10;;;;;;4995334;28;20896;-77
2022/12/12 03:51:00;;;;;;;28.83;15.83;;;2.40;96.10;;;;;;4995617;28;20459;-78
2022/12/12 03:53:32;;;;;;;25.30;16.70;;;2.40;96.10;;;;;;4996489;28;20472;-77
2022/12/12 03:56:05;;;;;;;32.10;17.77;;;2.40;96.10;;;;;;5001573;28;20956;-77
2022/12/12 03:58:38;;;;;;;28.93;16.77;;;2.40;96.10;;;;;;5014723;28;20440;-78
2022/12/12 04:01:09;;;;;;;33.10;16.77;;;2.40;96.10;;;;;;5015827;28;20451;-78
2022/12/12 04:03:40;;;;;;;34.00;17.10;;;2.40;96.10;;;;;;4995196;28;20433;-77
2022/12/12 04:06:28;;;;;;;33.20;17.07;;;2.40;96.10;;;;;;4995231;28;20771;-78
2022/12/12 04:14:59;;;;;;;34.60;18.73;;;2.40;96.30;;;;;;4995354;28;20538;-77
2022/12/12 04:17:36;;;;;;;27.63;16.43;;;2.40;96.40;;;;;;4994102;28;20472;-76
2022/12/12 04:23:17;;;;;;;31.13;16.23;;;2.40;96.60;;;;;;4995692;28;20413;-77
2022/12/12 04:28:59;;;;;;;29.47;16.60;;;2.30;96.80;;;;;;4995585;28;20400;-76
2022/12/12 04:31:29;;;;;;;30.17;16.97;;;2.30;96.90;;;;;;4995570;28;20437;-76
2022/12/12 04:34:03;;;;;;;25.77;17.50;;;2.30;97.00;;;;;;4995702;28;20481;-76
2022/12/12 04:36:33;;;;;;;32.63;17.67;;;2.30;97.00;;;;;;4995328;28;20441;-77
2022/12/12 04:39:01;;;;;;;33.50;17.57;;;2.40;97.20;;;;;;4998925;28;20434;-78
2022/12/12 04:41:30;;;;;;;31.97;17.93;;;2.40;97.20;;;;;;5008254;28;20456;-78
2022/12/12 04:44:00;;;;;;;27.47;17.00;;;2.40;97.20;;;;;;5006424;28;20873;-77
2022/12/12 04:46:32;;;;;;;29.10;17.70;;;2.40;97.10;;;;;;5008745;28;20457;-78
2022/12/12 04:49:02;;;;;;;32.20;17.43;;;2.40;97.20;;;;;;5003926;28;20445;-77
2022/12/12 04:51:34;;;;;;;24.77;15.30;;;2.40;97.20;;;;;;4996377;28;20799;-78
2022/12/12 04:54:09;;;;;;;24.43;16.40;;;2.40;97.20;;;;;;4996482;28;20499;-78
2022/12/12 04:56:39;;;;;;;24.00;15.60;;;2.40;97.20;;;;;;4996215;28;20437;-78
2022/12/12 04:59:07;;;;;;;21.70;15.50;;;2.40;97.20;;;;;;4995530;28;20865;-78
2022/12/12 05:01:42;;;;;;;23.23;14.40;;;2.40;97.20;;;;;;4995312;28;20476;-77
2022/12/12 05:04:14;;;;;;;25.60;16.87;;;2.40;97.10;;;;;;4995664;28;20488;-77
2022/12/12 05:06:47;;;;;;;23.57;15.00;;;2.40;97.10;;;;;;4995477;28;20433;-78
2022/12/12 05:09:16;;;;;;;23.20;14.67;;;2.40;97.10;;;;;;4994597;28;20449;-78
2022/12/12 05:11:43;;;;;;;24.30;14.97;;;2.40;97.00;;;;;;4995291;28;20473;-78
2022/12/12 05:14:11;;;;;;;20.77;13.83;;;2.40;97.00;;;;;;4994973;28;21032;-78
2022/12/12 05:16:42;;;;;;;24.13;14.93;;;2.40;96.90;;;;;;4995637;28;20462;-78
2022/12/12 05:19:09;;;;;;;18.47;13.70;;;2.40;97.00;;;;;;4994543;28;20437;-78
2022/12/12 05:21:35;;;;;;;23.83;15.20;;;2.40;97.00;;;;;;4993975;28;20472;-78
2022/12/12 05:24:04;;;;;;;20.50;13.70;;;2.40;96.80;;;;;;4994649;28;20978;-78
2022/12/12 05:26:33;;;;;;;22.87;15.93;;;2.40;96.90;;;;;;4994057;28;20461;-78
2022/12/12 05:29:00;;;;;;;23.50;16.10;;;2.40;96.90;;;;;;4995137;28;20455;-77
2022/12/12 05:31:26;;;;;;;20.13;14.00;;;2.40;96.90;;;;;;4994689;28;20448;-77
2022/12/12 05:33:53;;;;;;;23.80;15.20;;;2.40;96.90;;;;;;4994452;28;20839;-77
2022/12/12 05:36:20;;;;;;;24.03;13.70;;;2.50;96.90;;;;;;4994125;28;20967;-77
2022/12/12 05:38:47;;;;;;;19.37;13.70;;;2.50;96.90;;;;;;4994553;28;20477;-77
2022/12/12 05:41:15;;;;;;;21.23;14.63;;;2.50;96.80;;;;;;4994153;28;20459;-76
2022/12/12 05:43:42;;;;;;;25.93;14.50;;;2.50;96.80;;;;;;4994484;28;20465;-76
2022/12/12 05:46:09;;;;;;;24.80;14.30;;;2.50;96.70;;;;;;4994386;28;20460;-75
2022/12/12 05:48:35;;;;;;;20.70;14.43;;;2.50;96.70;;;;;;4994689;28;20489;-77
2022/12/12 05:51:03;;;;;;;20.23;13.57;;;2.40;96.60;;;;;;4994304;28;20469;-77
2022/12/12 05:53:31;;;;;;;22.43;12.30;;;2.40;96.60;;;;;;4997267;28;20874;-77
2022/12/12 05:55:59;;;;;;;21.33;13.10;;;2.40;96.60;;;;;;5001459;28;20453;-77
2022/12/12 05:58:27;;;;;;;21.67;13.83;;;2.40;96.70;;;;;;5005461;28;20457;-76
2022/12/12 06:00:54;;;;;;;19.17;12.17;;;2.40;96.60;;;;;;4993427;28;20457;-77
2022/12/12 06:03:21;;;;;;;18.60;13.00;;;2.40;96.70;;;;;;4993751;28;20471;-76
2022/12/12 06:05:47;;;;;;;22.23;13.93;;;2.40;96.70;;;;;;4993898;28;20854;-77
2022/12/12 06:08:14;;;;;;;22.47;13.90;;;2.40;96.70;;;;;;4993777;28;20484;-77
2022/12/12 06:10:41;;;;;;;20.03;13.37;;;2.30;96.70;;;;;;4994512;28;20461;-77
2022/12/12 06:13:08;;;;;;;24.13;14.63;;;2.40;96.60;;;;;;4993789;28;20447;-77
2022/12/12 06:15:39;;;;;;;21.50;15.03;;;2.40;96.60;;;;;;4993308;28;20993;-76
2022/12/12 06:18:06;;;;;;;22.37;14.47;;;2.30;96.50;;;;;;4993418;28;20479;-76
2022/12/12 06:20:32;;;;;;;21.37;14.70;;;2.30;96.50;;;;;;5001985;28;20471;-76
2022/12/12 06:22:59;;;;;;;24.20;15.27;;;2.30;96.50;;;;;;5016514;28;20455;-76
2022/12/12 06:25:26;;;;;;;25.67;15.00;;;2.30;96.40;;;;;;5016478;28;20979;-76
2022/12/12 06:27:52;;;;;;;26.93;16.50;;;2.30;96.30;;;;;;5016766;28;20441;-76
2022/12/12 06:30:19;;;;;;;22.23;15.27;;;2.20;96.30;;;;;;5016703;28;20444;-76
2022/12/12 06:32:47;;;;;;;21.20;14.50;;;2.20;96.40;;;;;;5016700;28;20973;-76
2022/12/12 06:35:14;;;;;;;19.20;13.60;;;2.20;96.40;;;;;;5023080;28;20520;-76
2022/12/12 06:37:41;;;;;;;21.70;14.03;;;2.20;96.40;;;;;;5028524;28;20455;-75
2022/12/12 06:40:09;;;;;;;20.10;12.93;;;2.20;96.40;;;;;;5019685;28;20453;-76
2022/12/12 06:42:36;;;;;;;23.47;13.10;;;2.20;96.40;;;;;;5016561;28;20456;-76
2022/12/12 06:45:04;;;;;;;19.93;12.53;;;2.30;96.40;;;;;;5016302;28;20471;-76
2022/12/12 06:47:31;;;;;;;20.80;13.07;;;2.20;96.30;;;;;;5016515;28;20513;-76
2022/12/12 06:49:59;;;;;;;20.83;12.47;;;2.20;96.20;;;;;;5016453;28;20458;-76
2022/12/12 06:52:25;;;;;;;20.33;13.50;;;2.20;96.20;;;;;;5016340;28;20820;-76
2022/12/12 06:54:52;;;;;;;21.83;12.43;;;2.20;96.10;;;;;;5007419;28;20500;-76
2022/12/12 06:57:19;;;;;;;23.47;14.37;;;2.20;96.00;;;;;;4997258;28;20441;-76
2022/12/12 06:59:45;;;;;;;23.40;14.20;;;2.20;95.90;;;;;;4996212;28;20441;-76
2022/12/12 07:02:12;;;;;;;17.37;13.33;;;2.20;95.90;;;;;;4997054;28;20475;-76
2022/12/12 07:04:39;;;;;;;22.73;13.80;;;2.20;95.70;;;;;;4996512;28;20457;-76
2022/12/12 07:07:07;;;;;;;23.37;13.70;;;2.20;95.50;;;;;;4996466;28;20980;-76
2022/12/12 07:09:33;;;;;;;19.33;12.77;;;2.20;95.40;;;;;;4996261;28;20476;-76
2022/12/12 07:12:00;;;;;;;22.20;13.50;;;2.20;95.30;;;;;;4996260;28;20472;-76
2022/12/12 07:14:27;;;;;;;19.40;12.80;;;2.10;95.10;;;;;;4996680;28;20493;-76
2022/12/12 07:16:53;;;;;;;20.20;12.00;;;2.10;95.10;;;;;;4996142;28;20471;-76
2022/12/12 07:19:21;;;;;;;20.90;12.03;;;2.10;95.20;;;;;;4996101;28;20457;-76
2022/12/12 07:21:48;;;;;;;21.40;12.17;;;2.10;95.60;;;;;;4995798;28;20452;-76
2022/12/12 07:24:16;;;;;;;19.17;12.07;;;2.10;95.60;;;;;;4995879;28;20466;-76
2022/12/12 07:26:43;;;;;;;18.87;12.37;;;2.10;95.30;;;;;;4995664;28;20456;-76
2022/12/12 07:29:10;;;;;;;20.27;14.37;;;2.10;95.40;;;;;;4995971;28;20448;-76
2022/12/12 07:31:37;;;;;;;26.13;17.00;;;2.10;95.40;;;;;;4994713;28;20981;-76
2022/12/12 07:34:04;;;;;;;32.40;16.97;;;2.10;95.40;;;;;;4995382;28;20856;-76
2022/12/12 07:36:30;;;;;;;30.43;18.70;;;2.10;95.50;;;;;;4995489;28;20945;-76
2022/12/12 07:38:57;;;;;;;28.37;17.43;;;2.10;95.50;;;;;;4996239;28;20456;-76
2022/12/12 07:41:25;;;;;;;23.00;13.00;;;2.00;95.30;;;;;;4995776;28;20914;-76
2022/12/12 07:43:52;;;;;;;24.00;13.33;;;2.00;95.30;;;;;;4995640;28;20476;-76
2022/12/12 07:46:21;;;;;;;23.93;13.63;;;2.00;95.20;;;;;;4995567;28;20453;-76
2022/12/12 07:48:48;;;;;;;22.00;13.97;;;1.90;95.30;;;;;;4995230;28;20445;-77
2022/12/12 07:51:16;;;;;;;18.87;12.30;;;1.90;95.50;;;;;;4995512;28;20445;-77
2022/12/12 07:53:42;;;;;;;22.50;12.43;;;1.90;95.60;;;;;;4995334;28;20469;-76
2022/12/12 07:56:11;;;;;;;21.57;12.20;;;1.90;95.60;;;;;;4995465;28;20807;-76
2022/12/12 07:58:40;;;;;;;25.50;12.60;;;1.90;95.70;;;;;;4995400;28;20515;-76
2022/12/12 08:01:12;;;;;;;24.20;11.50;;;1.90;95.60;;;;;;4995544;28;20464;-76
2022/12/12 08:03:39;;;;;;;25.37;11.37;;;1.90;95.60;;;;;;4995431;28;20468;-76
2022/12/12 08:06:06;;;;;;;29.13;13.10;;;1.90;95.60;;;;;;4997279;28;20456;-76
2022/12/12 08:08:33;;;;;;;19.20;12.67;;;1.90;95.40;;;;;;4998216;28;20459;-77
2022/12/12 08:11:03;;;;;;;18.10;11.37;;;1.90;95.30;;;;;;4999221;28;20448;-76
2022/12/12 08:13:31;;;;;;;21.50;11.47;;;1.90;95.30;;;;;;5000175;28;20447;-76
2022/12/12 08:16:00;;;;;;;26.80;12.80;;;1.90;95.20;;;;;;4999104;28;20849;-76
2022/12/12 08:18:26;;;;;;;17.07;10.50;;;1.90;95.10;;;;;;4997154;28;20433;-76
2022/12/12 08:20:53;;;;;;;20.73;11.90;;;1.90;95.10;;;;;;4996178;28;20459;-76
2022/12/12 08:23:20;;;;;;;18.80;12.00;;;1.90;95.10;;;;;;4995358;28;20445;-76
2022/12/12 08:25:46;;;;;;;22.20;11.30;;;1.90;95.10;;;;;;4996400;28;20465;-75
2022/12/12 08:28:13;;;;;;;16.50;9.93;;;1.90;95.10;;;;;;4997224;28;21012;-76
2022/12/12 08:30:40;;;;;;;18.53;12.00;;;1.90;95.10;;;;;;4995952;28;20504;-76
2022/12/12 08:33:08;;;;;;;26.50;12.20;;;1.90;95.00;;;;;;4996388;28;20466;-76
2022/12/12 08:35:35;;;;;;;17.17;11.23;;;1.90;95.00;;;;;;4996247;28;20488;-76
2022/12/12 08:38:02;;;;;;;17.03;10.40;;;1.90;95.00;;;;;;4995860;28;20449;-76
2022/12/12 08:40:29;;;;;;;16.93;10.67;;;1.90;94.90;;;;;;4995882;28;20460;-76
2022/12/12 08:42:56;;;;;;;19.47;12.30;;;2.00;94.90;;;;;;4995839;28;20460;-76
2022/12/12 08:45:22;;;;;;;18.17;11.93;;;1.90;94.70;;;;;;4995515;28;20465;-76
2022/12/12 08:47:49;;;;;;;21.17;11.90;;;2.00;94.70;;;;;;4994760;28;20933;-76
2022/12/12 08:50:17;;;;;;;17.57;11.50;;;2.00;94.60;;;;;;4994691;28;20537;-76
2022/12/12 08:52:44;;;;;;;18.93;10.33;;;2.00;94.60;;;;;;4994775;28;20475;-76
2022/12/12 08:55:10;;;;;;;18.40;11.20;;;2.00;94.60;;;;;;4994375;28;20496;-76
2022/12/12 08:57:37;;;;;;;17.93;11.07;;;2.00;94.60;;;;;;4995295;28;20433;-76
2022/12/12 09:00:05;;;;;;;21.50;12.43;;;2.00;94.50;;;;;;4994428;28;20463;-77
2022/12/12 09:02:32;;;;;;;16.10;10.63;;;2.00;94.40;;;;;;4994514;28;20491;-76
2022/12/12 09:04:59;;;;;;;23.57;12.60;;;2.00;94.30;;;;;;4994564;28;20859;-76
2022/12/12 09:07:27;;;;;;;18.13;11.67;;;1.90;94.20;;;;;;4994636;28;20444;-77
2022/12/12 09:09:53;;;;;;;21.87;12.80;;;1.90;94.20;;;;;;4994227;28;20996;-76
2022/12/12 09:12:20;;;;;;;20.03;12.20;;;1.90;94.20;;;;;;4994279;28;20457;-76
2022/12/12 09:14:47;;;;;;;18.90;10.87;;;1.90;94.30;;;;;;4994052;28;20493;-77
2022/12/12 09:17:13;;;;;;;18.03;10.80;;;1.80;94.30;;;;;;4993985;28;20448;-76
2022/12/12 09:19:40;;;;;;;18.87;11.33;;;1.80;94.40;;;;;;4994291;28;20860;-77
2022/12/12 09:22:07;;;;;;;20.47;11.40;;;1.80;94.40;;;;;;4994250;28;20445;-76
2022/12/12 09:24:35;;;;;;;17.80;10.90;;;1.80;94.40;;;;;;4993888;28;21092;-76
2022/12/12 09:27:02;;;;;;;20.23;10.17;;;1.90;94.40;;;;;;4993989;28;20465;-76
2022/12/12 09:29:28;;;;;;;16.70;10.70;;;1.90;94.30;;;;;;4994273;28;20448;-76
2022/12/12 09:31:56;;;;;;;17.07;10.73;;;1.90;94.30;;;;;;4994080;28;20530;-76
2022/12/12 09:34:22;;;;;;;18.23;9.93;;;1.90;94.20;;;;;;4994849;28;20476;-76
2022/12/12 09:36:49;;;;;;;23.17;10.20;;;2.00;94.20;;;;;;4993985;28;20464;-76
2022/12/12 09:39:16;;;;;;;20.93;10.03;;;2.00;94.10;;;;;;4994016;28;20437;-76
2022/12/12 09:41:44;;;;;;;20.53;10.27;;;2.00;94.00;;;;;;4994189;28;20476;-76
2022/12/12 09:44:14;;;;;;;16.93;10.37;;;2.00;93.90;;;;;;4994212;28;20481;-76
2022/12/12 09:46:44;;;;;;;17.40;9.27;;;2.10;93.90;;;;;;4993983;28;20536;-76
2022/12/12 09:49:15;;;;;;;22.83;10.27;;;2.10;93.80;;;;;;4994353;28;20839;-76
2022/12/12 09:51:43;;;;;;;16.60;9.30;;;2.10;93.70;;;;;;4993874;28;20441;-76
2022/12/12 09:54:14;;;;;;;15.40;10.13;;;2.10;93.80;;;;;;4994699;28;20488;-76
2022/12/12 09:56:49;;;;;;;14.37;9.83;;;2.20;93.80;;;;;;4997374;28;20465;-76
2022/12/12 09:59:22;;;;;;;17.30;9.57;;;2.20;93.80;;;;;;4997690;28;20440;-75
2022/12/12 10:01:59;;;;;;;17.40;10.13;;;2.30;93.70;;;;;;4997644;28;20459;-76
2022/12/12 10:04:36;;;;;;;16.83;10.10;;;2.30;93.70;;;;;;4997308;28;20468;-76
2022/12/12 10:07:10;;;;;;;16.50;9.53;;;2.40;93.80;;;;;;4997670;28;20433;-75
2022/12/12 10:09:48;;;;;;;15.00;9.70;;;2.40;93.70;;;;;;4997695;28;20440;-75
2022/12/12 10:12:18;;;;;;;14.53;9.00;;;2.50;93.60;;;;;;4997574;28;20448;-75
2022/12/12 10:14:49;;;;;;;15.57;10.10;;;2.50;93.40;;;;;;4997630;28;20493;-75
2022/12/12 10:17:18;;;;;;;17.53;9.57;;;2.60;93.30;;;;;;4997449;28;20433;-76
2022/12/12 10:19:49;;;;;;;16.17;10.10;;;2.70;93.40;;;;;;4996791;28;20449;-75
2022/12/12 10:22:20;;;;;;;15.20;10.10;;;2.70;93.30;;;;;;4997867;28;20485;-75
2022/12/12 10:24:51;;;;;;;19.67;11.00;;;2.80;93.20;;;;;;4997252;28;20470;-75
2022/12/12 10:27:19;;;;;;;15.10;10.20;;;2.80;93.20;;;;;;4996831;28;20464;-76
2022/12/12 10:29:47;;;;;;;18.73;10.70;;;2.90;93.10;;;;;;4997207;28;20469;-77
2022/12/12 10:32:30;;;;;;;18.50;11.30;;;3.00;93.10;;;;;;4997274;28;20456;-75
2022/12/12 10:35:11;;;;;;;20.67;12.10;;;3.10;93.00;;;;;;4997235;28;20853;-75
2022/12/12 10:37:47;;;;;;;19.70;12.13;;;3.20;92.90;;;;;;4996716;28;20890;-74
2022/12/12 10:40:31;;;;;;;24.47;14.47;;;3.30;93.00;;;;;;4997989;28;20430;-75
2022/12/12 10:43:03;;;;;;;19.20;12.73;;;3.40;93.00;;;;;;4996886;28;20440;-76
2022/12/12 10:45:47;;;;;;;20.77;13.47;;;3.50;92.90;;;;;;4996794;28;20466;-76
2022/12/12 10:48:14;;;;;;;23.00;13.40;;;3.60;93.10;;;;;;4996857;28;20456;-76
2022/12/12 10:50:44;;;;;;;22.90;14.20;;;3.70;93.20;;;;;;4996834;28;20814;-77
2022/12/12 10:53:12;;;;;;;23.07;14.53;;;3.90;93.40;;;;;;4997379;28;20465;-76
2022/12/12 10:55:47;;;;;;;22.57;12.83;;;4.00;93.20;;;;;;4996562;28;20486;-76
2022/12/12 10:58:17;;;;;;;21.80;14.03;;;4.20;93.20;;;;;;4996631;28;20441;-77
2022/12/12 11:00:45;;;;;;;18.87;13.50;;;4.30;93.00;;;;;;4997611;28;20441;-77
2022/12/12 11:03:22;;;;;;;22.63;14.37;;;4.40;92.60;;;;;;5005970;28;20494;-78
2022/12/12 11:05:49;;;;;;;25.80;14.20;;;4.60;92.20;;;;;;5009018;28;20430;-77
2022/12/12 11:08:21;;;;;;;23.13;12.53;;;4.80;91.90;;;;;;5006227;28;20433;-77
2022/12/12 11:11:00;;;;;;;23.87;13.57;;;5.10;91.40;;;;;;5004148;28;20443;-77
2022/12/12 11:13:29;;;;;;;20.97;12.23;;;5.40;90.40;;;;;;5005267;28;20439;-77
2022/12/12 11:15:59;;;;;;;16.80;10.60;;;5.60;88.80;;;;;;5006645;28;20487;-77
2022/12/12 11:18:26;;;;;;;20.03;11.40;;;5.80;86.20;;;;;;5010059;28;20452;-77
2022/12/12 11:21:02;;;;;;;20.70;11.47;;;6.10;84.80;;;;;;5010171;28;20436;-77
2022/12/12 11:23:31;;;;;;;15.67;10.43;;;6.40;84.20;;;;;;5006193;28;20442;-77
2022/12/12 11:25:59;;;;;;;19.17;11.80;;;6.80;83.20;;;;;;5015639;28;20455;-76
2022/12/12 11:28:31;;;;;;;16.83;11.50;;;7.20;82.00;;;;;;5012872;28;20433;-76
2022/12/12 11:31:05;;;;;;;18.97;11.27;;;7.60;80.10;;;;;;5002564;28;20948;-77
2022/12/12 11:33:34;;;;;;;16.27;11.10;;;7.90;77.70;;;;;;5001702;28;20525;-77
2022/12/12 11:36:05;;;;;;;13.83;11.23;;;8.30;76.00;;;;;;5001347;28;20492;-77
2022/12/12 11:38:39;;;;;;;15.07;10.87;;;8.70;74.70;;;;;;5001904;28;20467;-77
2022/12/12 11:41:09;;;;;;;16.50;11.40;;;9.00;73.20;;;;;;5000672;28;20440;-77
2022/12/12 11:43:51;;;;;;;16.07;11.73;;;9.40;70.50;;;;;;5000267;28;20439;-77
2022/12/12 11:46:23;;;;;;;17.40;11.60;;;9.60;67.90;;;;;;5000280;28;20439;-77
2022/12/12 11:48:58;;;;;;;15.50;11.50;;;9.90;66.20;;;;;;4999205;28;20457;-77
2022/12/12 11:51:37;;;;;;;16.00;11.30;;;10.30;63.40;;;;;;4999390;28;20439;-77
2022/12/12 11:54:10;;;;;;;14.90;11.20;;;10.60;61.50;;;;;;4998842;28;20478;-78
2022/12/12 11:56:44;;;;;;;16.50;11.13;;;10.80;59.80;;;;;;4999010;28;20868;-77
2022/12/12 11:59:40;;;;;;;15.90;12.27;;;11.00;58.80;;;;;;4999786;28;20440;-76
2022/12/12 12:02:50;;;;;;;18.53;11.50;;;11.30;58.10;;;;;;4983829;28;20457;-76
2022/12/12 12:05:26;;;;;;;17.63;12.07;;;11.50;56.80;;;;;;4999160;28;20468;-77
2022/12/12 12:08:04;;;;;;;14.90;11.47;;;11.70;55.90;;;;;;4998471;28;20436;-77
2022/12/12 12:10:42;;;;;;;17.90;11.57;;;11.90;55.20;;;;;;4997990;28;20772;-77
2022/12/12 12:13:27;;;;;;;13.90;11.67;;;12.10;55.20;;;;;;4996753;28;20433;-77
2022/12/12 12:16:07;;;;;;;16.43;11.73;;;12.20;53.90;;;;;;4997532;28;20478;-77
2022/12/12 12:18:50;;;;;;;12.40;11.10;;;12.30;53.40;;;;;;4997637;28;20437;-77
2022/12/12 12:21:27;;;;;;;15.70;11.60;;;12.50;53.00;;;;;;4997834;28;20441;-77
2022/12/12 12:24:05;;;;;;;15.70;10.70;;;12.60;52.70;;;;;;4996601;28;20472;-77
2022/12/12 12:26:35;;;;;;;15.73;10.40;;;12.60;52.10;;;;;;4997198;28;20453;-78
2022/12/12 12:29:19;;;;;;;14.90;11.20;;;12.70;51.40;;;;;;4997633;28;20824;-77
2022/12/12 12:31:58;;;;;;;16.47;12.30;;;12.70;51.20;;;;;;4997664;28;20432;-77
2022/12/12 12:34:38;;;;;;;14.93;11.77;;;12.80;50.90;;;;;;4996913;28;20478;-77
2022/12/12 12:37:16;;;;;;;17.33;11.47;;;12.80;50.00;;;;;;4996504;28;20475;-77
2022/12/12 12:40:02;;;;;;;14.77;10.63;;;12.80;49.80;;;;;;4997531;28;20532;-77
2022/12/12 12:42:43;;;;;;;15.00;10.70;;;12.70;49.60;;;;;;4995623;28;20443;-77
2022/12/12 12:45:18;;;;;;;16.43;11.03;;;12.80;49.70;;;;;;4995797;28;20487;-77
2022/12/12 12:47:51;;;;;;;13.00;10.50;;;12.80;49.30;;;;;;4994857;28;20843;-77
2022/12/12 12:50:22;;;;;;;13.60;10.40;;;12.80;49.00;;;;;;4995121;28;20471;-77
2022/12/12 12:52:54;;;;;;;15.13;10.40;;;12.80;49.00;;;;;;4995327;28;20949;-78
2022/12/12 12:55:26;;;;;;;16.40;11.70;;;12.80;48.80;;;;;;4995779;28;20488;-77
2022/12/12 12:57:53;;;;;;;12.40;10.70;;;12.80;48.70;;;;;;4994671;28;20448;-77
2022/12/12 13:00:22;;;;;;;13.10;10.30;;;12.80;48.20;;;;;;4995232;28;20458;-77
2022/12/12 13:02:56;;;;;;;11.10;9.87;;;12.70;48.40;;;;;;4998494;28;20475;-78
2022/12/12 13:05:31;;;;;;;13.90;9.67;;;12.60;48.60;;;;;;5005213;28;20479;-78
2022/12/12 13:08:07;;;;;;;12.17;10.13;;;12.50;48.80;;;;;;5000897;28;20439;-77